sensor_id;sensor_type;location;lat;lon;timestamp;P1;durP1;ratioP1;P2;durP2;ratioP2
15878;SDS011;61999;51.514;14.614;2023-08-30T00:01:37;0.70;;;0.70;;
15878;SDS011;61999;51.514;14.614;2023-08-30T00:04:06;0.70;;;0.70;;
15878;SDS011;61999;51.514;14.614;2023-08-30T00:06:36;0.60;;;0.60;;
15878;SDS011;61999;51.514;14.614;2023-08-30T00:09:04;0.90;;;0.90;;
15878;SDS011;61999;51.514;14.614;2023-08-30T00:11:33;0.90;;;0.90;;
15878;SDS011;61999;51.514;14.614;2023-08-30T00:14:04;0.80;;;0.80;;
15878;SDS011;61999;51.514;14.614;2023-08-30T00:16:34;2.00;;;0.70;;
15878;SDS011;61999;51.514;14.614;2023-08-30T00:19:04;1.10;;;1.10;;
15878;SDS011;61999;51.514;14.614;2023-08-30T00:21:32;1.40;;;1.30;;
15878;SDS011;61999;51.514;14.614;2023-08-30T00:24:01;1.07;;;1.00;;
15878;SDS011;61999;51.514;14.614;2023-08-30T00:26:30;1.00;;;1.00;;
15878;SDS011;61999;51.514;14.614;2023-08-30T00:28:58;0.90;;;0.90;;
15878;SDS011;61999;51.514;14.614;2023-08-30T00:31:26;1.50;;;1.40;;
15878;SDS011;61999;51.514;14.614;2023-08-30T00:33:56;1.07;;;1.07;;
15878;SDS011;61999;51.514;14.614;2023-08-30T00:36:25;1.80;;;1.70;;
15878;SDS011;61999;51.514;14.614;2023-08-30T00:38:53;2.10;;;2.00;;
15878;SDS011;61999;51.514;14.614;2023-08-30T00:41:22;2.10;;;2.00;;
15878;SDS011;61999;51.514;14.614;2023-08-30T00:43:50;2.00;;;1.90;;
15878;SDS011;61999;51.514;14.614;2023-08-30T00:46:18;2.87;;;2.50;;
15878;SDS011;61999;51.514;14.614;2023-08-30T00:48:47;3.17;;;2.97;;
15878;SDS011;61999;51.514;14.614;2023-08-30T00:51:15;2.77;;;2.60;;
15878;SDS011;61999;51.514;14.614;2023-08-30T00:53:43;3.00;;;2.80;;
15878;SDS011;61999;51.514;14.614;2023-08-30T00:56:12;2.50;;;2.40;;
15878;SDS011;61999;51.514;14.614;2023-08-30T00:58:44;2.70;;;2.50;;
15878;SDS011;61999;51.514;14.614;2023-08-30T01:01:12;2.60;;;2.50;;
15878;SDS011;61999;51.514;14.614;2023-08-30T01:03:42;2.93;;;2.73;;
15878;SDS011;61999;51.514;14.614;2023-08-30T01:06:14;3.17;;;2.97;;
15878;SDS011;61999;51.514;14.614;2023-08-30T01:08:42;2.33;;;2.23;;
15878;SDS011;61999;51.514;14.614;2023-08-30T01:11:11;2.10;;;2.00;;
15878;SDS011;61999;51.514;14.614;2023-08-30T01:13:53;2.90;;;2.70;;
15878;SDS011;61999;51.514;14.614;2023-08-30T01:16:31;2.20;;;2.00;;
15878;SDS011;61999;51.514;14.614;2023-08-30T01:19:03;2.37;;;2.20;;
15878;SDS011;61999;51.514;14.614;2023-08-30T01:21:56;3.90;;;1.90;;
15878;SDS011;61999;51.514;14.614;2023-08-30T01:24:36;2.20;;;2.10;;
15878;SDS011;61999;51.514;14.614;2023-08-30T01:27:16;1.90;;;1.80;;
15878;SDS011;61999;51.514;14.614;2023-08-30T01:29:46;1.70;;;1.60;;
15878;SDS011;61999;51.514;14.614;2023-08-30T01:32:17;1.33;;;1.30;;
15878;SDS011;61999;51.514;14.614;2023-08-30T01:34:46;1.83;;;1.73;;
15878;SDS011;61999;51.514;14.614;2023-08-30T01:37:16;1.70;;;1.60;;
15878;SDS011;61999;51.514;14.614;2023-08-30T01:39:46;1.20;;;1.20;;
15878;SDS011;61999;51.514;14.614;2023-08-30T01:42:15;1.40;;;1.30;;
15878;SDS011;61999;51.514;14.614;2023-08-30T01:44:48;1.63;;;1.20;;
15878;SDS011;61999;51.514;14.614;2023-08-30T01:47:17;1.40;;;1.30;;
15878;SDS011;61999;51.514;14.614;2023-08-30T01:49:46;1.77;;;1.67;;
15878;SDS011;61999;51.514;14.614;2023-08-30T01:52:16;1.63;;;1.53;;
15878;SDS011;61999;51.514;14.614;2023-08-30T01:54:46;1.50;;;1.40;;
15878;SDS011;61999;51.514;14.614;2023-08-30T01:57:19;1.70;;;1.60;;
15878;SDS011;61999;51.514;14.614;2023-08-30T01:59:47;1.50;;;1.40;;
15878;SDS011;61999;51.514;14.614;2023-08-30T02:02:16;2.40;;;1.93;;
15878;SDS011;61999;51.514;14.614;2023-08-30T02:04:44;2.07;;;1.97;;
15878;SDS011;61999;51.514;14.614;2023-08-30T02:07:17;2.57;;;2.37;;
15878;SDS011;61999;51.514;14.614;2023-08-30T02:09:57;2.50;;;2.30;;
15878;SDS011;61999;51.514;14.614;2023-08-30T02:12:32;2.50;;;2.40;;
15878;SDS011;61999;51.514;14.614;2023-08-30T02:15:08;2.40;;;2.30;;
15878;SDS011;61999;51.514;14.614;2023-08-30T02:17:39;2.53;;;2.43;;
15878;SDS011;61999;51.514;14.614;2023-08-30T02:20:07;2.47;;;2.37;;
15878;SDS011;61999;51.514;14.614;2023-08-30T02:22:36;2.63;;;2.53;;
15878;SDS011;61999;51.514;14.614;2023-08-30T02:25:05;2.00;;;1.90;;
15878;SDS011;61999;51.514;14.614;2023-08-30T02:27:35;2.43;;;2.23;;
15878;SDS011;61999;51.514;14.614;2023-08-30T02:30:04;2.20;;;2.10;;
15878;SDS011;61999;51.514;14.614;2023-08-30T02:32:34;2.10;;;2.00;;
15878;SDS011;61999;51.514;14.614;2023-08-30T02:35:02;2.40;;;2.20;;
15878;SDS011;61999;51.514;14.614;2023-08-30T02:37:31;2.00;;;1.90;;
15878;SDS011;61999;51.514;14.614;2023-08-30T02:39:59;2.03;;;1.93;;
15878;SDS011;61999;51.514;14.614;2023-08-30T02:42:29;2.57;;;2.37;;
15878;SDS011;61999;51.514;14.614;2023-08-30T02:44:58;2.50;;;2.40;;
15878;SDS011;61999;51.514;14.614;2023-08-30T02:47:26;2.43;;;2.33;;
15878;SDS011;61999;51.514;14.614;2023-08-30T02:49:54;2.33;;;2.23;;
15878;SDS011;61999;51.514;14.614;2023-08-30T02:52:22;2.73;;;2.53;;
15878;SDS011;61999;51.514;14.614;2023-08-30T02:54:50;2.97;;;2.77;;
15878;SDS011;61999;51.514;14.614;2023-08-30T02:57:18;3.53;;;3.30;;
15878;SDS011;61999;51.514;14.614;2023-08-30T02:59:46;2.90;;;2.70;;
15878;SDS011;61999;51.514;14.614;2023-08-30T03:02:16;2.40;;;2.30;;
15878;SDS011;61999;51.514;14.614;2023-08-30T03:04:44;2.30;;;2.20;;
15878;SDS011;61999;51.514;14.614;2023-08-30T03:07:12;2.43;;;2.33;;
15878;SDS011;61999;51.514;14.614;2023-08-30T03:09:40;2.80;;;2.60;;
15878;SDS011;61999;51.514;14.614;2023-08-30T03:12:08;3.60;;;3.30;;
15878;SDS011;61999;51.514;14.614;2023-08-30T03:14:36;2.70;;;2.50;;
15878;SDS011;61999;51.514;14.614;2023-08-30T03:17:04;2.03;;;1.93;;
15878;SDS011;61999;51.514;14.614;2023-08-30T03:19:33;2.70;;;2.50;;
15878;SDS011;61999;51.514;14.614;2023-08-30T03:22:01;2.97;;;2.77;;
15878;SDS011;61999;51.514;14.614;2023-08-30T03:24:30;2.90;;;2.70;;
15878;SDS011;61999;51.514;14.614;2023-08-30T03:26:58;2.93;;;2.60;;
15878;SDS011;61999;51.514;14.614;2023-08-30T03:29:26;2.43;;;2.23;;
15878;SDS011;61999;51.514;14.614;2023-08-30T03:31:56;4.37;;;3.00;;
15878;SDS011;61999;51.514;14.614;2023-08-30T03:34:24;2.80;;;2.60;;
15878;SDS011;61999;51.514;14.614;2023-08-30T03:36:53;3.13;;;2.27;;
15878;SDS011;61999;51.514;14.614;2023-08-30T03:39:21;2.20;;;2.10;;
15878;SDS011;61999;51.514;14.614;2023-08-30T03:41:50;2.57;;;2.13;;
15878;SDS011;61999;51.514;14.614;2023-08-30T03:44:19;2.60;;;2.40;;
15878;SDS011;61999;51.514;14.614;2023-08-30T03:46:47;2.33;;;2.13;;
15878;SDS011;61999;51.514;14.614;2023-08-30T03:49:15;2.80;;;2.60;;
15878;SDS011;61999;51.514;14.614;2023-08-30T03:51:43;2.50;;;2.30;;
15878;SDS011;61999;51.514;14.614;2023-08-30T03:54:13;2.50;;;2.30;;
15878;SDS011;61999;51.514;14.614;2023-08-30T03:56:42;2.57;;;2.37;;
15878;SDS011;61999;51.514;14.614;2023-08-30T03:59:11;2.30;;;2.20;;
15878;SDS011;61999;51.514;14.614;2023-08-30T04:01:39;2.23;;;2.13;;
15878;SDS011;61999;51.514;14.614;2023-08-30T04:04:07;2.40;;;2.27;;
15878;SDS011;61999;51.514;14.614;2023-08-30T04:06:35;2.40;;;2.20;;
15878;SDS011;61999;51.514;14.614;2023-08-30T04:09:03;2.33;;;2.10;;
15878;SDS011;61999;51.514;14.614;2023-08-30T04:11:33;2.43;;;2.23;;
15878;SDS011;61999;51.514;14.614;2023-08-30T04:14:02;3.33;;;2.60;;
15878;SDS011;61999;51.514;14.614;2023-08-30T04:16:30;2.13;;;2.00;;
15878;SDS011;61999;51.514;14.614;2023-08-30T04:18:58;3.87;;;2.60;;
15878;SDS011;61999;51.514;14.614;2023-08-30T04:21:27;3.50;;;3.00;;
15878;SDS011;61999;51.514;14.614;2023-08-30T04:23:55;2.47;;;2.30;;
15878;SDS011;61999;51.514;14.614;2023-08-30T04:26:23;2.77;;;2.57;;
15878;SDS011;61999;51.514;14.614;2023-08-30T04:28:52;2.60;;;2.40;;
15878;SDS011;61999;51.514;14.614;2023-08-30T04:31:20;3.20;;;2.60;;
15878;SDS011;61999;51.514;14.614;2023-08-30T04:33:48;2.87;;;2.67;;
15878;SDS011;61999;51.514;14.614;2023-08-30T04:36:18;3.30;;;2.70;;
15878;SDS011;61999;51.514;14.614;2023-08-30T04:38:46;4.50;;;2.77;;
15878;SDS011;61999;51.514;14.614;2023-08-30T04:41:21;4.07;;;2.60;;
15878;SDS011;61999;51.514;14.614;2023-08-30T04:43:52;2.87;;;2.67;;
15878;SDS011;61999;51.514;14.614;2023-08-30T04:46:20;3.33;;;3.03;;
15878;SDS011;61999;51.514;14.614;2023-08-30T04:48:48;3.00;;;2.80;;
15878;SDS011;61999;51.514;14.614;2023-08-30T04:51:16;3.63;;;3.40;;
15878;SDS011;61999;51.514;14.614;2023-08-30T04:53:44;4.43;;;2.77;;
15878;SDS011;61999;51.514;14.614;2023-08-30T04:56:13;2.83;;;2.63;;
15878;SDS011;61999;51.514;14.614;2023-08-30T04:58:44;2.93;;;2.73;;
15878;SDS011;61999;51.514;14.614;2023-08-30T05:01:13;4.57;;;3.23;;
15878;SDS011;61999;51.514;14.614;2023-08-30T05:03:42;4.03;;;3.73;;
15878;SDS011;61999;51.514;14.614;2023-08-30T05:06:10;3.43;;;3.23;;
15878;SDS011;61999;51.514;14.614;2023-08-30T05:08:42;4.50;;;4.10;;
15878;SDS011;61999;51.514;14.614;2023-08-30T05:11:10;3.70;;;3.40;;
15878;SDS011;61999;51.514;14.614;2023-08-30T05:13:38;4.33;;;4.03;;
15878;SDS011;61999;51.514;14.614;2023-08-30T05:16:06;4.47;;;3.77;;
15878;SDS011;61999;51.514;14.614;2023-08-30T05:18:36;3.90;;;3.70;;
15878;SDS011;61999;51.514;14.614;2023-08-30T05:21:04;4.03;;;3.73;;
15878;SDS011;61999;51.514;14.614;2023-08-30T05:23:32;4.17;;;3.83;;
15878;SDS011;61999;51.514;14.614;2023-08-30T05:26:00;3.70;;;3.30;;
15878;SDS011;61999;51.514;14.614;2023-08-30T05:28:28;5.33;;;4.30;;
15878;SDS011;61999;51.514;14.614;2023-08-30T05:30:57;4.33;;;3.93;;
15878;SDS011;61999;51.514;14.614;2023-08-30T05:33:25;3.90;;;3.60;;
15878;SDS011;61999;51.514;14.614;2023-08-30T05:35:54;5.00;;;4.37;;
15878;SDS011;61999;51.514;14.614;2023-08-30T05:38:23;4.03;;;3.63;;
15878;SDS011;61999;51.514;14.614;2023-08-30T05:40:51;3.60;;;3.30;;
15878;SDS011;61999;51.514;14.614;2023-08-30T05:43:19;3.60;;;3.30;;
15878;SDS011;61999;51.514;14.614;2023-08-30T05:45:47;3.90;;;3.20;;
15878;SDS011;61999;51.514;14.614;2023-08-30T05:48:15;5.47;;;3.50;;
15878;SDS011;61999;51.514;14.614;2023-08-30T05:50:43;3.80;;;3.50;;
15878;SDS011;61999;51.514;14.614;2023-08-30T05:53:13;4.10;;;3.80;;
15878;SDS011;61999;51.514;14.614;2023-08-30T05:55:41;3.57;;;3.27;;
15878;SDS011;61999;51.514;14.614;2023-08-30T05:58:09;4.07;;;3.70;;
15878;SDS011;61999;51.514;14.614;2023-08-30T06:00:37;3.73;;;3.47;;
15878;SDS011;61999;51.514;14.614;2023-08-30T06:03:05;3.57;;;3.27;;
15878;SDS011;61999;51.514;14.614;2023-08-30T06:05:33;3.67;;;3.37;;
15878;SDS011;61999;51.514;14.614;2023-08-30T06:08:01;3.87;;;3.57;;
15878;SDS011;61999;51.514;14.614;2023-08-30T06:10:31;4.83;;;3.70;;
15878;SDS011;61999;51.514;14.614;2023-08-30T06:12:59;4.10;;;3.30;;
15878;SDS011;61999;51.514;14.614;2023-08-30T06:15:28;3.47;;;3.17;;
15878;SDS011;61999;51.514;14.614;2023-08-30T06:17:57;3.80;;;3.50;;
15878;SDS011;61999;51.514;14.614;2023-08-30T06:20:26;3.90;;;3.60;;
15878;SDS011;61999;51.514;14.614;2023-08-30T06:22:54;3.30;;;3.10;;
15878;SDS011;61999;51.514;14.614;2023-08-30T06:25:25;4.10;;;3.80;;
15878;SDS011;61999;51.514;14.614;2023-08-30T06:27:57;3.83;;;3.53;;
15878;SDS011;61999;51.514;14.614;2023-08-30T06:30:29;5.03;;;3.53;;
15878;SDS011;61999;51.514;14.614;2023-08-30T06:32:58;4.20;;;3.83;;
15878;SDS011;61999;51.514;14.614;2023-08-30T06:35:26;4.23;;;3.83;;
15878;SDS011;61999;51.514;14.614;2023-08-30T06:37:54;4.47;;;4.07;;
15878;SDS011;61999;51.514;14.614;2023-08-30T06:40:23;3.63;;;3.40;;
15878;SDS011;61999;51.514;14.614;2023-08-30T06:42:52;4.10;;;3.80;;
15878;SDS011;61999;51.514;14.614;2023-08-30T06:45:21;3.87;;;3.57;;
15878;SDS011;61999;51.514;14.614;2023-08-30T06:47:50;6.13;;;4.30;;
15878;SDS011;61999;51.514;14.614;2023-08-30T06:50:19;4.43;;;4.03;;
15878;SDS011;61999;51.514;14.614;2023-08-30T06:52:47;3.80;;;3.50;;
15878;SDS011;61999;51.514;14.614;2023-08-30T06:55:16;4.17;;;3.87;;
15878;SDS011;61999;51.514;14.614;2023-08-30T06:57:47;4.60;;;3.40;;
15878;SDS011;61999;51.514;14.614;2023-08-30T07:00:17;3.57;;;3.37;;
15878;SDS011;61999;51.514;14.614;2023-08-30T07:02:47;3.40;;;3.20;;
15878;SDS011;61999;51.514;14.614;2023-08-30T07:05:16;3.93;;;3.63;;
15878;SDS011;61999;51.514;14.614;2023-08-30T07:07:44;3.37;;;3.13;;
15878;SDS011;61999;51.514;14.614;2023-08-30T07:10:12;3.80;;;3.50;;
15878;SDS011;61999;51.514;14.614;2023-08-30T07:12:40;3.27;;;3.07;;
15878;SDS011;61999;51.514;14.614;2023-08-30T07:15:09;3.63;;;3.33;;
15878;SDS011;61999;51.514;14.614;2023-08-30T07:17:38;3.20;;;3.00;;
15878;SDS011;61999;51.514;14.614;2023-08-30T07:20:17;2.53;;;2.20;;
15878;SDS011;61999;51.514;14.614;2023-08-30T07:22:45;3.77;;;3.47;;
15878;SDS011;61999;51.514;14.614;2023-08-30T07:25:14;3.00;;;2.80;;
15878;SDS011;61999;51.514;14.614;2023-08-30T07:27:42;3.83;;;3.50;;
15878;SDS011;61999;51.514;14.614;2023-08-30T07:30:11;3.00;;;2.80;;
15878;SDS011;61999;51.514;14.614;2023-08-30T07:32:40;2.87;;;2.67;;
15878;SDS011;61999;51.514;14.614;2023-08-30T07:35:09;3.40;;;2.43;;
15878;SDS011;61999;51.514;14.614;2023-08-30T07:37:40;2.50;;;2.30;;
15878;SDS011;61999;51.514;14.614;2023-08-30T07:40:09;3.53;;;2.13;;
15878;SDS011;61999;51.514;14.614;2023-08-30T07:42:38;3.30;;;3.10;;
15878;SDS011;61999;51.514;14.614;2023-08-30T07:45:07;2.67;;;2.37;;
15878;SDS011;61999;51.514;14.614;2023-08-30T07:47:37;2.43;;;2.30;;
15878;SDS011;61999;51.514;14.614;2023-08-30T07:50:06;2.97;;;2.53;;
15878;SDS011;61999;51.514;14.614;2023-08-30T07:52:35;2.70;;;2.50;;
15878;SDS011;61999;51.514;14.614;2023-08-30T07:55:11;3.00;;;2.80;;
15878;SDS011;61999;51.514;14.614;2023-08-30T07:57:41;3.00;;;2.80;;
15878;SDS011;61999;51.514;14.614;2023-08-30T08:00:10;4.30;;;3.00;;
15878;SDS011;61999;51.514;14.614;2023-08-30T08:02:40;2.77;;;2.50;;
15878;SDS011;61999;51.514;14.614;2023-08-30T08:05:08;3.83;;;2.37;;
15878;SDS011;61999;51.514;14.614;2023-08-30T08:07:37;2.23;;;2.03;;
15878;SDS011;61999;51.514;14.614;2023-08-30T08:10:07;2.10;;;2.00;;
15878;SDS011;61999;51.514;14.614;2023-08-30T08:12:37;2.27;;;1.90;;
15878;SDS011;61999;51.514;14.614;2023-08-30T08:15:06;2.10;;;2.00;;
15878;SDS011;61999;51.514;14.614;2023-08-30T08:17:35;1.80;;;1.70;;
15878;SDS011;61999;51.514;14.614;2023-08-30T08:20:04;2.03;;;1.60;;
15878;SDS011;61999;51.514;14.614;2023-08-30T08:22:33;1.70;;;1.60;;
15878;SDS011;61999;51.514;14.614;2023-08-30T08:25:01;1.70;;;1.60;;
15878;SDS011;61999;51.514;14.614;2023-08-30T08:27:30;2.40;;;2.20;;
15878;SDS011;61999;51.514;14.614;2023-08-30T08:30:00;1.87;;;1.77;;
15878;SDS011;61999;51.514;14.614;2023-08-30T08:32:30;2.10;;;2.00;;
15878;SDS011;61999;51.514;14.614;2023-08-30T08:34:59;2.47;;;1.80;;
15878;SDS011;61999;51.514;14.614;2023-08-30T08:37:27;1.50;;;1.40;;
15878;SDS011;61999;51.514;14.614;2023-08-30T08:39:55;1.60;;;1.50;;
15878;SDS011;61999;51.514;14.614;2023-08-30T08:42:23;1.30;;;1.30;;
15878;SDS011;61999;51.514;14.614;2023-08-30T08:44:53;2.80;;;1.70;;
15878;SDS011;61999;51.514;14.614;2023-08-30T08:47:25;1.57;;;1.33;;
15878;SDS011;61999;51.514;14.614;2023-08-30T08:49:56;1.60;;;1.50;;
15878;SDS011;61999;51.514;14.614;2023-08-30T08:52:26;1.90;;;1.60;;
15878;SDS011;61999;51.514;14.614;2023-08-30T08:54:56;1.63;;;1.53;;
15878;SDS011;61999;51.514;14.614;2023-08-30T08:57:26;2.30;;;1.77;;
15878;SDS011;61999;51.514;14.614;2023-08-30T08:59:57;1.37;;;1.27;;
15878;SDS011;61999;51.514;14.614;2023-08-30T09:02:27;2.47;;;1.33;;
15878;SDS011;61999;51.514;14.614;2023-08-30T09:04:56;1.50;;;1.40;;
15878;SDS011;61999;51.514;14.614;2023-08-30T09:07:27;1.57;;;1.33;;
15878;SDS011;61999;51.514;14.614;2023-08-30T09:09:56;1.57;;;1.13;;
15878;SDS011;61999;51.514;14.614;2023-08-30T09:12:25;1.77;;;1.57;;
15878;SDS011;61999;51.514;14.614;2023-08-30T09:14:53;1.43;;;1.33;;
15878;SDS011;61999;51.514;14.614;2023-08-30T09:17:22;1.50;;;1.40;;
15878;SDS011;61999;51.514;14.614;2023-08-30T09:20:07;1.67;;;1.30;;
15878;SDS011;61999;51.514;14.614;2023-08-30T09:22:37;1.13;;;1.10;;
15878;SDS011;61999;51.514;14.614;2023-08-30T09:25:08;1.47;;;1.30;;
15878;SDS011;61999;51.514;14.614;2023-08-30T09:27:38;1.40;;;1.23;;
15878;SDS011;61999;51.514;14.614;2023-08-30T09:30:08;1.20;;;1.10;;
15878;SDS011;61999;51.514;14.614;2023-08-30T09:32:40;0.90;;;0.90;;
15878;SDS011;61999;51.514;14.614;2023-08-30T09:35:10;1.30;;;1.20;;
15878;SDS011;61999;51.514;14.614;2023-08-30T09:37:38;1.87;;;1.33;;
15878;SDS011;61999;51.514;14.614;2023-08-30T09:40:07;1.57;;;1.13;;
15878;SDS011;61999;51.514;14.614;2023-08-30T09:42:39;1.20;;;1.10;;
15878;SDS011;61999;51.514;14.614;2023-08-30T09:45:17;1.03;;;1.03;;
15878;SDS011;61999;51.514;14.614;2023-08-30T09:47:46;1.20;;;1.10;;
15878;SDS011;61999;51.514;14.614;2023-08-30T09:50:18;1.70;;;1.30;;
15878;SDS011;61999;51.514;14.614;2023-08-30T09:52:48;1.57;;;1.47;;
15878;SDS011;61999;51.514;14.614;2023-08-30T09:55:18;1.63;;;1.40;;
15878;SDS011;61999;51.514;14.614;2023-08-30T09:57:47;1.33;;;1.23;;
15878;SDS011;61999;51.514;14.614;2023-08-30T10:00:17;1.87;;;1.20;;
15878;SDS011;61999;51.514;14.614;2023-08-30T10:02:46;1.70;;;1.27;;
15878;SDS011;61999;51.514;14.614;2023-08-30T10:05:30;1.30;;;1.20;;
15878;SDS011;61999;51.514;14.614;2023-08-30T10:08:00;1.33;;;1.23;;
15878;SDS011;61999;51.514;14.614;2023-08-30T10:10:30;2.80;;;1.37;;
15878;SDS011;61999;51.514;14.614;2023-08-30T10:12:58;1.80;;;1.40;;
15878;SDS011;61999;51.514;14.614;2023-08-30T10:15:33;1.40;;;1.30;;
15878;SDS011;61999;51.514;14.614;2023-08-30T10:18:08;1.77;;;1.40;;
15878;SDS011;61999;51.514;14.614;2023-08-30T10:20:42;1.33;;;1.23;;
15878;SDS011;61999;51.514;14.614;2023-08-30T10:23:12;1.50;;;1.40;;
15878;SDS011;61999;51.514;14.614;2023-08-30T10:25:43;1.43;;;1.33;;
15878;SDS011;61999;51.514;14.614;2023-08-30T10:28:14;1.67;;;1.57;;
15878;SDS011;61999;51.514;14.614;2023-08-30T10:30:44;1.47;;;1.30;;
15878;SDS011;61999;51.514;14.614;2023-08-30T10:33:13;1.10;;;1.07;;
15878;SDS011;61999;51.514;14.614;2023-08-30T10:35:50;1.53;;;1.43;;
15878;SDS011;61999;51.514;14.614;2023-08-30T10:38:25;1.33;;;0.97;;
15878;SDS011;61999;51.514;14.614;2023-08-30T10:40:54;0.80;;;0.80;;
15878;SDS011;61999;51.514;14.614;2023-08-30T10:43:33;1.10;;;1.10;;
15878;SDS011;61999;51.514;14.614;2023-08-30T10:46:04;2.00;;;1.57;;
15878;SDS011;61999;51.514;14.614;2023-08-30T10:48:34;1.20;;;1.20;;
15878;SDS011;61999;51.514;14.614;2023-08-30T10:51:19;1.23;;;1.13;;
15878;SDS011;61999;51.514;14.614;2023-08-30T10:53:55;1.30;;;1.20;;
15878;SDS011;61999;51.514;14.614;2023-08-30T10:56:27;1.17;;;1.07;;
15878;SDS011;61999;51.514;14.614;2023-08-30T10:58:56;1.00;;;0.90;;
15878;SDS011;61999;51.514;14.614;2023-08-30T11:01:24;2.70;;;1.23;;
15878;SDS011;61999;51.514;14.614;2023-08-30T11:03:52;1.20;;;1.10;;
15878;SDS011;61999;51.514;14.614;2023-08-30T11:06:28;1.33;;;1.20;;
15878;SDS011;61999;51.514;14.614;2023-08-30T11:08:57;1.50;;;1.30;;
15878;SDS011;61999;51.514;14.614;2023-08-30T11:11:25;2.50;;;1.50;;
15878;SDS011;61999;51.514;14.614;2023-08-30T11:13:53;0.97;;;0.93;;
15878;SDS011;61999;51.514;14.614;2023-08-30T11:16:21;2.07;;;1.10;;
15878;SDS011;61999;51.514;14.614;2023-08-30T11:18:49;1.50;;;1.20;;
15878;SDS011;61999;51.514;14.614;2023-08-30T11:21:17;0.90;;;0.90;;
15878;SDS011;61999;51.514;14.614;2023-08-30T11:23:47;1.53;;;1.20;;
15878;SDS011;61999;51.514;14.614;2023-08-30T11:26:15;1.83;;;1.27;;
15878;SDS011;61999;51.514;14.614;2023-08-30T11:28:43;1.07;;;1.07;;
15878;SDS011;61999;51.514;14.614;2023-08-30T11:31:17;2.20;;;1.07;;
15878;SDS011;61999;51.514;14.614;2023-08-30T11:33:51;1.50;;;1.20;;
15878;SDS011;61999;51.514;14.614;2023-08-30T11:36:22;1.07;;;1.00;;
15878;SDS011;61999;51.514;14.614;2023-08-30T11:38:53;1.13;;;1.03;;
15878;SDS011;61999;51.514;14.614;2023-08-30T11:41:22;1.37;;;1.27;;
15878;SDS011;61999;51.514;14.614;2023-08-30T11:43:51;2.53;;;1.00;;
15878;SDS011;61999;51.514;14.614;2023-08-30T11:46:20;1.17;;;0.90;;
15878;SDS011;61999;51.514;14.614;2023-08-30T11:48:49;1.00;;;1.00;;
15878;SDS011;61999;51.514;14.614;2023-08-30T11:51:18;1.30;;;1.20;;
15878;SDS011;61999;51.514;14.614;2023-08-30T11:53:47;2.30;;;1.30;;
15878;SDS011;61999;51.514;14.614;2023-08-30T11:56:17;0.97;;;0.90;;
15878;SDS011;61999;51.514;14.614;2023-08-30T11:58:46;2.40;;;1.40;;
15878;SDS011;61999;51.514;14.614;2023-08-30T12:01:14;1.13;;;0.83;;
15878;SDS011;61999;51.514;14.614;2023-08-30T12:03:42;1.03;;;1.00;;
15878;SDS011;61999;51.514;14.614;2023-08-30T12:06:15;1.30;;;1.20;;
15878;SDS011;61999;51.514;14.614;2023-08-30T12:08:44;1.00;;;0.90;;
15878;SDS011;61999;51.514;14.614;2023-08-30T12:11:20;1.30;;;1.20;;
15878;SDS011;61999;51.514;14.614;2023-08-30T12:13:48;0.80;;;0.80;;
15878;SDS011;61999;51.514;14.614;2023-08-30T12:16:17;0.93;;;0.93;;
15878;SDS011;61999;51.514;14.614;2023-08-30T12:18:46;2.77;;;1.10;;
15878;SDS011;61999;51.514;14.614;2023-08-30T12:21:14;1.00;;;1.00;;
15878;SDS011;61999;51.514;14.614;2023-08-30T12:23:43;1.50;;;0.90;;
15878;SDS011;61999;51.514;14.614;2023-08-30T12:26:11;1.43;;;1.33;;
15878;SDS011;61999;51.514;14.614;2023-08-30T12:28:41;0.80;;;0.80;;
15878;SDS011;61999;51.514;14.614;2023-08-30T12:31:10;1.10;;;1.00;;
15878;SDS011;61999;51.514;14.614;2023-08-30T12:33:38;1.37;;;1.00;;
15878;SDS011;61999;51.514;14.614;2023-08-30T12:36:07;0.90;;;0.90;;
15878;SDS011;61999;51.514;14.614;2023-08-30T12:38:35;2.33;;;1.10;;
15878;SDS011;61999;51.514;14.614;2023-08-30T12:41:03;1.30;;;1.20;;
15878;SDS011;61999;51.514;14.614;2023-08-30T12:43:31;1.30;;;0.93;;
15878;SDS011;61999;51.514;14.614;2023-08-30T12:46:01;1.00;;;1.00;;
15878;SDS011;61999;51.514;14.614;2023-08-30T12:48:30;1.13;;;1.03;;
15878;SDS011;61999;51.514;14.614;2023-08-30T12:50:58;1.40;;;1.30;;
15878;SDS011;61999;51.514;14.614;2023-08-30T12:53:26;1.13;;;1.03;;
15878;SDS011;61999;51.514;14.614;2023-08-30T12:55:54;2.07;;;1.00;;
15878;SDS011;61999;51.514;14.614;2023-08-30T12:58:22;1.17;;;1.03;;
15878;SDS011;61999;51.514;14.614;2023-08-30T13:00:50;1.07;;;1.00;;
15878;SDS011;61999;51.514;14.614;2023-08-30T13:03:20;1.00;;;1.00;;
15878;SDS011;61999;51.514;14.614;2023-08-30T13:05:48;1.20;;;1.10;;
15878;SDS011;61999;51.514;14.614;2023-08-30T13:08:16;1.20;;;1.10;;
15878;SDS011;61999;51.514;14.614;2023-08-30T13:10:44;1.43;;;1.10;;
15878;SDS011;61999;51.514;14.614;2023-08-30T13:13:12;1.43;;;1.27;;
15878;SDS011;61999;51.514;14.614;2023-08-30T13:15:40;1.77;;;1.10;;
15878;SDS011;61999;51.514;14.614;2023-08-30T13:18:09;2.70;;;1.30;;
15878;SDS011;61999;51.514;14.614;2023-08-30T13:20:39;2.30;;;1.60;;
15878;SDS011;61999;51.514;14.614;2023-08-30T13:23:07;2.23;;;1.13;;
15878;SDS011;61999;51.514;14.614;2023-08-30T13:25:37;0.90;;;0.90;;
15878;SDS011;61999;51.514;14.614;2023-08-30T13:28:07;1.80;;;1.20;;
15878;SDS011;61999;51.514;14.614;2023-08-30T13:30:35;1.30;;;1.20;;
15878;SDS011;61999;51.514;14.614;2023-08-30T13:33:03;2.43;;;1.30;;
15878;SDS011;61999;51.514;14.614;2023-08-30T13:35:32;1.67;;;1.40;;
15878;SDS011;61999;51.514;14.614;2023-08-30T13:38:01;1.23;;;1.13;;
15878;SDS011;61999;51.514;14.614;2023-08-30T13:40:30;1.03;;;1.00;;
15878;SDS011;61999;51.514;14.614;2023-08-30T13:42:58;0.97;;;0.90;;
15878;SDS011;61999;51.514;14.614;2023-08-30T13:45:26;1.30;;;0.90;;
15878;SDS011;61999;51.514;14.614;2023-08-30T13:47:54;1.80;;;1.20;;
15878;SDS011;61999;51.514;14.614;2023-08-30T13:50:22;1.77;;;1.30;;
15878;SDS011;61999;51.514;14.614;2023-08-30T13:52:52;1.20;;;1.10;;
15878;SDS011;61999;51.514;14.614;2023-08-30T13:55:21;2.00;;;1.40;;
15878;SDS011;61999;51.514;14.614;2023-08-30T13:57:50;1.30;;;1.20;;
15878;SDS011;61999;51.514;14.614;2023-08-30T14:00:18;1.20;;;1.10;;
15878;SDS011;61999;51.514;14.614;2023-08-30T14:02:47;1.50;;;1.40;;
15878;SDS011;61999;51.514;14.614;2023-08-30T14:05:15;1.20;;;1.10;;
15878;SDS011;61999;51.514;14.614;2023-08-30T14:07:44;1.10;;;1.00;;
15878;SDS011;61999;51.514;14.614;2023-08-30T14:10:12;2.20;;;1.27;;
15878;SDS011;61999;51.514;14.614;2023-08-30T14:12:47;1.63;;;1.20;;
15878;SDS011;61999;51.514;14.614;2023-08-30T14:15:15;1.23;;;1.13;;
15878;SDS011;61999;51.514;14.614;2023-08-30T14:17:44;1.20;;;1.10;;
15878;SDS011;61999;51.514;14.614;2023-08-30T14:20:12;1.47;;;1.37;;
15878;SDS011;61999;51.514;14.614;2023-08-30T14:22:40;1.27;;;1.17;;
15878;SDS011;61999;51.514;14.614;2023-08-30T14:25:08;1.63;;;1.43;;
15878;SDS011;61999;51.514;14.614;2023-08-30T14:27:37;1.83;;;1.27;;
15878;SDS011;61999;51.514;14.614;2023-08-30T14:30:07;1.23;;;1.13;;
15878;SDS011;61999;51.514;14.614;2023-08-30T14:32:36;1.23;;;1.00;;
15878;SDS011;61999;51.514;14.614;2023-08-30T14:35:04;1.43;;;1.30;;
15878;SDS011;61999;51.514;14.614;2023-08-30T14:37:33;1.07;;;1.07;;
15878;SDS011;61999;51.514;14.614;2023-08-30T14:40:02;6.43;;;1.47;;
15878;SDS011;61999;51.514;14.614;2023-08-30T14:42:31;1.40;;;1.30;;
15878;SDS011;61999;51.514;14.614;2023-08-30T14:44:59;1.40;;;1.13;;
15878;SDS011;61999;51.514;14.614;2023-08-30T14:47:30;1.00;;;1.00;;